Time;durP1;ratioP1;P1;durP2;ratioP2;P2;SDS_P1;SDS_P2;PMS_P1;PMS_P2;Temp;Humidity;BMP_temperature;BMP_pressure;BME280_temperature;BME280_humidity;BME280_pressure;Samples;Min_cycle;Max_cycle;Signal;HPM_P1;HPM_P2
2022/05/27 00:01:26;;;;;;;1.83;0.80;;;18.00;76.50;;;;;;4967980;28;20061;-81
2022/05/27 00:03:53;;;;;;;2.22;0.80;;;17.90;76.90;;;;;;4998510;28;20466;-79
2022/05/27 00:06:19;;;;;;;2.90;0.90;;;17.90;76.90;;;;;;4970217;28;20236;-80
2022/05/27 00:08:45;;;;;;;1.67;0.87;;;17.90;77.00;;;;;;4996431;28;20422;-80
2022/05/27 00:11:14;;;;;;;2.17;1.00;;;17.90;77.20;;;;;;4994837;28;20038;-80
2022/05/27 00:13:41;;;;;;;2.17;0.80;;;17.90;77.30;;;;;;4993881;28;20124;-79
2022/05/27 00:16:08;;;;;;;2.55;0.90;;;17.90;77.20;;;;;;4982202;28;20041;-80
2022/05/27 00:18:34;;;;;;;3.03;0.90;;;17.90;77.40;;;;;;4979392;28;20112;-81
2022/05/27 00:20:59;;;;;;;2.43;1.00;;;17.80;77.40;;;;;;4980137;28;20442;-81
2022/05/27 00:23:26;;;;;;;1.00;0.63;;;17.80;77.50;;;;;;4994168;28;20042;-81
2022/05/27 00:25:51;;;;;;;1.75;0.80;;;17.80;77.40;;;;;;4999340;28;20040;-80
2022/05/27 00:28:17;;;;;;;3.27;0.93;;;17.80;77.50;;;;;;5002676;28;20031;-81
2022/05/27 00:30:43;;;;;;;1.40;0.70;;;17.80;77.60;;;;;;4971496;28;20399;-81
2022/05/27 00:33:09;;;;;;;2.17;0.90;;;17.80;77.70;;;;;;4976357;28;20034;-80
2022/05/27 00:35:35;;;;;;;1.55;0.80;;;17.80;77.70;;;;;;4993076;28;20180;-80
2022/05/27 00:38:01;;;;;;;2.42;0.70;;;17.80;77.80;;;;;;5002923;28;20037;-80
2022/05/27 00:40:35;;;;;;;2.63;0.80;;;17.80;77.90;;;;;;4974517;28;20133;-81
2022/05/27 00:43:00;;;;;;;2.58;1.00;;;17.80;77.70;;;;;;4993875;28;20030;-81
2022/05/27 00:45:27;;;;;;;2.38;0.70;;;17.80;78.00;;;;;;4982417;28;20446;-81
2022/05/27 00:47:56;;;;;;;1.83;0.80;;;17.80;77.90;;;;;;5001021;28;20410;-81
2022/05/27 00:50:25;;;;;;;2.13;0.95;;;17.80;77.80;;;;;;4990372;28;20081;-80
2022/05/27 00:52:52;;;;;;;1.83;0.90;;;17.80;77.90;;;;;;4969400;28;20506;-80
2022/05/27 00:55:25;;;;;;;2.85;0.85;;;17.80;78.10;;;;;;4987584;28;20038;-81
2022/05/27 00:58:02;;;;;;;1.00;0.80;;;17.80;77.90;;;;;;5001315;28;20484;-80
2022/05/27 01:00:28;;;;;;;1.53;0.90;;;17.70;77.90;;;;;;5025403;28;20077;-80
2022/05/27 01:02:56;;;;;;;1.42;0.80;;;17.80;78.10;;;;;;4990894;28;20150;-80
2022/05/27 01:05:23;;;;;;;2.05;0.90;;;17.80;79.00;;;;;;5018997;28;20029;-79
2022/05/27 01:08:01;;;;;;;1.90;0.90;;;17.70;78.30;;;;;;4999021;28;20065;-81
2022/05/27 01:10:28;;;;;;;4.13;0.90;;;17.80;78.10;;;;;;5018256;28;20084;-81
2022/05/27 01:13:16;;;;;;;1.67;0.90;;;17.70;78.50;;;;;;4994995;28;20492;-80
2022/05/27 01:15:59;;;;;;;1.55;0.80;;;17.70;77.80;;;;;;5009486;28;20064;-80
2022/05/27 01:21:46;;;;;;;2.40;0.88;;;17.70;78.40;;;;;;5000394;28;20128;-81
2022/05/27 01:24:33;;;;;;;2.72;1.00;;;17.70;78.40;;;;;;5015451;28;20044;-80
2022/05/27 01:27:11;;;;;;;4.13;1.00;;;17.70;78.00;;;;;;5017759;28;20037;-80
2022/05/27 01:29:55;;;;;;;2.83;1.00;;;17.70;78.50;;;;;;4994758;28;20154;-80
2022/05/27 01:32:40;;;;;;;3.60;0.90;;;17.70;78.80;;;;;;5010139;28;20037;-80
2022/05/27 01:35:34;;;;;;;2.63;0.75;;;17.60;78.60;;;;;;4993826;28;20045;-80
2022/05/27 01:38:16;;;;;;;2.72;1.20;;;17.60;78.70;;;;;;4993396;28;20048;-80
2022/05/27 01:40:54;;;;;;;3.73;1.03;;;17.60;78.70;;;;;;4997233;28;20278;-81
2022/05/27 01:44:15;;;;;;;3.00;0.90;;;17.60;79.00;;;;;;5032984;28;20061;-80
2022/05/27 01:46:45;;;;;;;2.63;0.90;;;17.60;78.70;;;;;;4958054;28;20052;-80
2022/05/27 01:49:23;;;;;;;2.97;0.90;;;17.60;79.20;;;;;;4989910;28;20406;-80
2022/05/27 01:51:58;;;;;;;3.30;1.10;;;17.60;79.20;;;;;;5019613;28;20025;-80
2022/05/27 01:55:04;;;;;;;2.57;1.00;;;17.60;79.00;;;;;;4988383;28;20041;-81
2022/05/27 01:57:36;;;;;;;4.00;1.20;;;17.60;79.00;;;;;;4991024;28;20493;-82
2022/05/27 02:00:07;;;;;;;3.17;1.08;;;17.60;79.40;;;;;;5018280;28;20179;-80
2022/05/27 02:02:39;;;;;;;3.33;1.00;;;17.60;79.50;;;;;;5004487;28;20041;-80
2022/05/27 02:05:10;;;;;;;2.20;0.95;;;17.60;79.50;;;;;;5014905;28;20128;-82
2022/05/27 02:07:47;;;;;;;4.07;1.20;;;17.50;79.50;;;;;;4997088;28;20034;-80
2022/05/27 02:10:26;;;;;;;3.50;1.00;;;17.50;79.50;;;;;;4987487;28;20264;-80
2022/05/27 02:13:00;;;;;;;3.95;1.08;;;17.50;79.50;;;;;;5001801;28;20478;-80
2022/05/27 02:15:40;;;;;;;3.20;0.90;;;17.50;79.60;;;;;;5017086;28;20132;-79
2022/05/27 02:18:26;;;;;;;2.60;1.00;;;17.50;79.50;;;;;;4986822;28;20573;-80
2022/05/27 02:20:57;;;;;;;3.67;1.00;;;17.40;79.60;;;;;;4980869;28;20087;-80
2022/05/27 02:23:29;;;;;;;2.55;0.90;;;17.40;79.80;;;;;;5009003;28;20482;-81
2022/05/27 02:25:57;;;;;;;4.70;1.20;;;17.40;79.90;;;;;;5004584;28;20053;-80
2022/05/27 02:28:31;;;;;;;4.88;1.25;;;17.40;80.00;;;;;;4989040;28;20025;-79
2022/05/27 02:31:04;;;;;;;2.50;1.00;;;17.30;80.00;;;;;;5005211;28;20120;-80
2022/05/27 02:36:32;;;;;;;3.25;1.10;;;17.30;80.40;;;;;;4987304;28;20855;-81
2022/05/27 02:38:57;;;;;;;3.35;1.00;;;17.30;80.50;;;;;;5003665;28;20397;-80
2022/05/27 02:41:31;;;;;;;4.00;1.10;;;17.30;80.70;;;;;;4999069;28;20037;-81
2022/05/27 02:44:15;;;;;;;4.25;1.20;;;17.30;80.80;;;;;;5017171;28;20034;-80
2022/05/27 02:46:50;;;;;;;3.05;1.20;;;17.30;80.70;;;;;;5023739;28;20041;-82
2022/05/27 02:49:34;;;;;;;2.25;0.93;;;17.30;80.90;;;;;;4991051;28;20172;-81
2022/05/27 02:52:24;;;;;;;2.00;0.93;;;17.30;80.90;;;;;;4998693;28;20044;-81
2022/05/27 02:55:24;;;;;;;3.43;1.00;;;17.30;81.00;;;;;;5021435;28;20102;-81
2022/05/27 02:57:52;;;;;;;2.63;1.10;;;17.30;81.00;;;;;;5025461;28;20044;-80
2022/05/27 03:00:24;;;;;;;2.70;1.10;;;17.30;81.10;;;;;;5002100;28;20045;-80
2022/05/27 03:02:50;;;;;;;3.80;1.20;;;17.30;81.10;;;;;;5013561;28;20453;-81
2022/05/27 03:05:18;;;;;;;3.90;1.20;;;17.30;81.20;;;;;;4986195;28;20033;-80
2022/05/27 03:08:16;;;;;;;3.37;1.20;;;17.30;81.30;;;;;;4999669;28;20126;-80
2022/05/27 03:11:19;;;;;;;3.65;1.40;;;17.30;81.10;;;;;;5015612;28;20058;-80
2022/05/27 03:14:09;;;;;;;2.95;1.13;;;17.30;81.20;;;;;;5010797;28;24576;-81
2022/05/27 03:16:48;;;;;;;3.47;1.30;;;17.30;81.90;;;;;;5023132;28;20056;-80
2022/05/27 03:19:51;;;;;;;3.55;1.30;;;17.30;81.30;;;;;;4996966;28;20539;-80
2022/05/27 03:23:07;;;;;;;3.33;1.00;;;17.30;81.20;;;;;;5010296;28;20045;-81
2022/05/27 03:25:54;;;;;;;2.20;1.10;;;17.30;81.10;;;;;;4917705;28;20270;-80
2022/05/27 03:28:38;;;;;;;4.78;1.20;;;17.30;81.40;;;;;;5015910;28;21099;-81
2022/05/27 03:31:13;;;;;;;3.63;1.48;;;17.30;81.30;;;;;;5011142;28;20457;-80
2022/05/27 03:33:54;;;;;;;3.55;1.27;;;17.30;81.50;;;;;;5017759;28;20231;-81
2022/05/27 03:36:19;;;;;;;5.03;1.53;;;17.30;81.40;;;;;;4985629;28;20029;-82
2022/05/27 03:39:05;;;;;;;4.03;1.50;;;17.20;81.20;;;;;;5010232;28;20407;-81
2022/05/27 03:41:37;;;;;;;4.25;1.30;;;17.20;81.40;;;;;;4988276;28;21219;-81
2022/05/27 03:44:04;;;;;;;5.00;1.60;;;17.10;81.50;;;;;;5015258;28;20037;-81
2022/05/27 03:46:35;;;;;;;3.78;1.60;;;17.10;81.60;;;;;;5006420;28;20037;-80
2022/05/27 03:49:02;;;;;;;5.63;1.77;;;17.10;81.80;;;;;;5021107;28;20711;-80
2022/05/27 03:51:31;;;;;;;3.38;1.60;;;17.00;81.80;;;;;;4992472;28;20120;-80
2022/05/27 03:54:03;;;;;;;4.55;1.83;;;17.00;82.10;;;;;;5018655;28;20037;-80
2022/05/27 03:56:32;;;;;;;5.33;1.90;;;16.90;82.10;;;;;;5016375;28;20708;-80
2022/05/27 03:58:58;;;;;;;3.67;1.55;;;16.90;82.40;;;;;;4977621;28;20049;-80
2022/05/27 04:01:25;;;;;;;4.07;1.85;;;16.90;82.50;;;;;;5010105;28;20559;-80
2022/05/27 04:03:51;;;;;;;5.18;2.00;;;16.90;82.70;;;;;;4985394;28;20728;-80
2022/05/27 04:06:18;;;;;;;3.20;1.77;;;16.90;82.90;;;;;;4999811;28;20080;-80
2022/05/27 04:08:43;;;;;;;5.32;2.00;;;16.80;83.00;;;;;;5017493;28;20079;-81
2022/05/27 04:11:09;;;;;;;5.68;2.33;;;16.80;83.10;;;;;;5004408;28;20503;-78
2022/05/27 04:13:35;;;;;;;5.37;2.00;;;16.80;83.20;;;;;;4997565;28;20045;-81
2022/05/27 04:16:00;;;;;;;4.23;1.90;;;16.80;83.40;;;;;;5018604;28;20345;-80
2022/05/27 04:18:26;;;;;;;5.53;1.93;;;16.80;83.50;;;;;;4991418;28;20530;-80
2022/05/27 04:20:51;;;;;;;5.77;1.93;;;16.80;83.60;;;;;;4985822;28;20549;-80
2022/05/27 04:23:17;;;;;;;7.15;2.15;;;16.80;83.80;;;;;;5008433;28;20458;-81
2022/05/27 04:25:48;;;;;;;6.05;2.13;;;16.80;83.90;;;;;;4988804;28;20131;-79
2022/05/27 04:28:14;;;;;;;6.57;2.13;;;16.80;84.10;;;;;;4996979;28;20102;-80
2022/05/27 04:30:41;;;;;;;4.63;2.15;;;16.70;83.90;;;;;;5014984;28;20041;-80
2022/05/27 04:33:08;;;;;;;5.65;2.13;;;16.70;83.90;;;;;;4994901;28;20032;-80
2022/05/27 04:35:34;;;;;;;7.65;2.33;;;16.70;84.00;;;;;;5015039;28;20036;-80
2022/05/27 04:37:59;;;;;;;6.17;2.20;;;16.70;84.20;;;;;;4992407;28;20041;-81
2022/05/27 04:40:25;;;;;;;6.57;2.25;;;16.70;84.40;;;;;;4993647;28;20065;-80
2022/05/27 04:42:50;;;;;;;6.23;2.50;;;16.70;84.50;;;;;;4997014;28;20041;-79
2022/05/27 04:45:16;;;;;;;5.63;2.30;;;16.70;84.60;;;;;;4967003;28;20022;-79
2022/05/27 04:47:42;;;;;;;5.97;2.47;;;16.70;84.70;;;;;;5019172;28;20276;-80
2022/05/27 04:50:11;;;;;;;6.00;2.23;;;16.70;84.90;;;;;;4992239;28;20389;-80
2022/05/27 04:52:38;;;;;;;6.13;2.43;;;16.70;85.00;;;;;;4974424;28;20296;-78
2022/05/27 04:55:07;;;;;;;4.60;2.20;;;16.70;85.20;;;;;;5010078;28;20152;-79
2022/05/27 04:57:43;;;;;;;4.82;2.20;;;16.70;85.30;;;;;;5013449;28;20565;-79
2022/05/27 05:00:15;;;;;;;6.15;2.42;;;16.60;85.50;;;;;;4989525;28;20102;-80
2022/05/27 05:02:42;;;;;;;7.93;2.60;;;16.70;85.50;;;;;;4987913;28;20052;-80
2022/05/27 05:05:08;;;;;;;4.27;2.13;;;16.70;85.40;;;;;;4969272;28;20038;-80
2022/05/27 05:07:35;;;;;;;8.15;2.78;;;16.60;85.40;;;;;;4984532;28;20470;-79
2022/05/27 05:10:02;;;;;;;5.50;2.20;;;16.60;85.50;;;;;;4982491;28;20048;-80
2022/05/27 05:12:28;;;;;;;5.20;2.47;;;16.70;85.60;;;;;;5008673;28;20193;-81
2022/05/27 05:14:54;;;;;;;5.67;2.80;;;16.70;85.70;;;;;;5004716;28;20484;-79
2022/05/27 05:17:21;;;;;;;5.25;2.33;;;16.60;85.90;;;;;;4992068;28;20745;-80
2022/05/27 05:19:47;;;;;;;6.88;2.50;;;16.60;86.00;;;;;;4991514;28;20049;-79
2022/05/27 05:22:13;;;;;;;5.10;2.40;;;16.60;86.20;;;;;;4962325;28;20862;-80
2022/05/27 05:24:39;;;;;;;4.90;2.80;;;16.60;86.30;;;;;;4980384;28;20074;-79
2022/05/27 05:27:06;;;;;;;5.95;2.88;;;16.60;86.50;;;;;;5012919;28;20029;-79
2022/05/27 05:29:32;;;;;;;7.57;2.90;;;16.70;86.70;;;;;;4997243;28;20034;-80
2022/05/27 05:31:57;;;;;;;5.63;2.53;;;16.70;86.70;;;;;;4994508;28;20056;-79
2022/05/27 05:34:23;;;;;;;5.10;2.80;;;16.70;86.70;;;;;;5011843;28;20026;-78
2022/05/27 05:36:48;;;;;;;6.43;2.67;;;16.70;86.80;;;;;;4996685;28;20129;-79
2022/05/27 05:39:14;;;;;;;5.93;2.93;;;16.70;87.00;;;;;;4977961;28;20169;-79
2022/05/27 05:41:40;;;;;;;5.88;2.63;;;16.70;87.10;;;;;;5004765;28;20044;-79
2022/05/27 05:44:08;;;;;;;4.80;2.55;;;16.80;87.30;;;;;;4989710;28;20531;-79
2022/05/27 05:46:36;;;;;;;5.93;3.00;;;16.80;87.50;;;;;;4985097;28;20125;-79
2022/05/27 05:49:02;;;;;;;5.05;2.70;;;16.80;88.30;;;;;;4968197;28;20032;-79
2022/05/27 05:51:28;;;;;;;6.97;3.13;;;16.90;87.80;;;;;;4992234;28;20044;-80
2022/05/27 05:53:54;;;;;;;7.53;3.13;;;16.90;88.10;;;;;;4964338;28;20082;-80
2022/05/27 05:56:21;;;;;;;9.17;3.40;;;17.00;88.40;;;;;;5004999;28;20033;-79
2022/05/27 05:58:50;;;;;;;8.70;3.30;;;17.00;88.70;;;;;;5024319;28;20037;-79
2022/05/27 06:01:16;;;;;;;6.45;2.80;;;17.10;88.90;;;;;;4990023;28;20819;-80
2022/05/27 06:03:42;;;;;;;5.72;3.00;;;17.20;88.90;;;;;;4969833;28;20033;-80
2022/05/27 06:06:07;;;;;;;6.83;3.10;;;17.30;88.90;;;;;;5018416;28;20045;-79
2022/05/27 06:08:33;;;;;;;6.93;3.30;;;17.40;88.90;;;;;;4994737;28;20037;-79
2022/05/27 06:10:59;;;;;;;6.57;3.10;;;17.40;88.70;;;;;;4980085;28;20032;-79
2022/05/27 06:13:26;;;;;;;8.35;3.67;;;17.50;88.60;;;;;;5014436;28;20045;-80
2022/05/27 06:15:52;;;;;;;5.93;3.38;;;17.60;88.70;;;;;;4995407;28;20546;-79
2022/05/27 06:18:18;;;;;;;7.90;3.38;;;17.60;88.90;;;;;;4997456;28;20317;-79
2022/05/27 06:20:44;;;;;;;7.60;3.47;;;17.70;89.20;;;;;;4993936;28;20462;-80
2022/05/27 06:23:09;;;;;;;6.32;3.40;;;17.80;89.30;;;;;;4996711;28;20361;-80
2022/05/27 06:25:35;;;;;;;7.30;3.70;;;17.90;89.60;;;;;;5006087;28;20041;-80
2022/05/27 06:36:15;;;;;;;6.22;3.25;;;18.30;89.30;;;;;;4977955;28;20451;-80
2022/05/27 06:38:41;;;;;;;7.88;3.70;;;18.30;89.10;;;;;;4966971;28;20039;-80
2022/05/27 06:41:06;;;;;;;7.17;3.50;;;18.40;89.20;;;;;;4965625;28;20069;-80
2022/05/27 06:43:32;;;;;;;6.60;3.33;;;18.50;89.10;;;;;;4988608;28;20095;-80
2022/05/27 06:46:00;;;;;;;8.23;3.50;;;18.60;89.20;;;;;;4989135;28;20037;-79
2022/05/27 06:48:26;;;;;;;8.02;3.58;;;18.60;89.10;;;;;;4988758;28;20108;-80
2022/05/27 06:50:52;;;;;;;6.38;3.53;;;18.70;89.10;;;;;;4987415;28;20133;-80
2022/05/27 06:53:18;;;;;;;7.28;3.50;;;18.80;89.20;;;;;;4985416;28;20026;-83
2022/05/27 06:55:52;;;;;;;6.23;3.70;;;18.90;89.20;;;;;;4970250;28;20471;-83
2022/05/27 06:58:18;;;;;;;7.20;3.15;;;19.00;88.60;;;;;;5015016;28;20074;-81
2022/05/27 07:00:44;;;;;;;5.95;3.20;;;19.10;89.20;;;;;;5011657;28;20076;-79
2022/05/27 07:03:10;;;;;;;4.25;2.90;;;19.20;89.50;;;;;;5005248;28;20913;-79
2022/05/27 07:05:36;;;;;;;6.13;3.03;;;19.30;90.00;;;;;;4995275;28;20449;-80
2022/05/27 07:08:03;;;;;;;6.50;2.85;;;19.50;89.90;;;;;;5003851;28;20390;-81
2022/05/27 07:10:29;;;;;;;6.20;2.90;;;19.60;89.30;;;;;;4974587;28;20034;-80
2022/05/27 07:12:59;;;;;;;4.88;2.53;;;19.60;88.80;;;;;;5000887;28;20055;-81
2022/05/27 07:15:25;;;;;;;5.93;2.60;;;19.70;89.00;;;;;;4985314;28;20236;-80
2022/05/27 07:17:51;;;;;;;5.72;2.30;;;19.80;89.50;;;;;;5006003;28;20482;-79
2022/05/27 07:20:17;;;;;;;4.95;2.30;;;19.90;89.70;;;;;;4995672;28;20155;-81
2022/05/27 07:22:43;;;;;;;4.63;2.10;;;20.10;88.90;;;;;;4982222;28;20042;-79
2022/05/27 07:25:11;;;;;;;4.25;2.17;;;20.20;88.20;;;;;;4979342;28;20983;-80
2022/05/27 07:27:37;;;;;;;5.25;2.30;;;20.20;87.50;;;;;;4980178;28;20181;-79
2022/05/27 07:30:04;;;;;;;4.50;2.10;;;20.30;86.90;;;;;;5006041;28;20216;-80
2022/05/27 07:32:33;;;;;;;3.55;1.75;;;20.30;86.40;;;;;;5020537;28;20029;-80
2022/05/27 07:34:59;;;;;;;3.28;1.67;;;20.30;85.90;;;;;;4985903;28;20038;-80
2022/05/27 07:37:24;;;;;;;3.20;1.73;;;20.30;87.20;;;;;;5016664;28;20300;-81
2022/05/27 07:39:50;;;;;;;2.50;1.40;;;20.50;87.70;;;;;;4957300;28;20548;-80
2022/05/27 07:42:15;;;;;;;3.33;1.33;;;20.50;87.70;;;;;;4978338;28;20347;-80
2022/05/27 07:44:41;;;;;;;2.88;1.55;;;20.70;89.10;;;;;;5027052;28;20084;-80
2022/05/27 07:47:07;;;;;;;3.70;1.30;;;20.90;90.00;;;;;;5009180;28;20394;-79
2022/05/27 07:49:34;;;;;;;3.55;1.40;;;21.20;90.40;;;;;;5012008;28;20041;-81
2022/05/27 07:52:05;;;;;;;2.53;1.20;;;21.60;90.40;;;;;;5022808;28;20363;-82
2022/05/27 07:54:30;;;;;;;2.55;1.25;;;22.00;90.20;;;;;;4996621;28;20033;-80
2022/05/27 07:56:57;;;;;;;2.55;1.25;;;22.40;90.70;;;;;;5001141;28;20049;-81
2022/05/27 07:59:22;;;;;;;2.17;1.30;;;22.80;90.00;;;;;;4996815;28;20033;-80
2022/05/27 08:01:48;;;;;;;1.80;1.20;;;23.10;87.50;;;;;;5015177;28;20037;-80
2022/05/27 08:04:14;;;;;;;2.65;1.20;;;23.30;85.40;;;;;;5007938;28;20474;-80
2022/05/27 08:06:40;;;;;;;2.40;1.30;;;23.30;84.20;;;;;;5008865;28;20474;-81
2022/05/27 08:09:06;;;;;;;1.95;1.30;;;23.30;83.00;;;;;;4960841;28;20033;-80
2022/05/27 08:11:32;;;;;;;2.30;1.30;;;23.30;81.50;;;;;;4977043;28;20067;-80
2022/05/27 08:14:00;;;;;;;2.33;1.30;;;23.20;80.70;;;;;;5012403;28;20034;-81
2022/05/27 08:16:26;;;;;;;2.40;1.35;;;23.10;82.20;;;;;;5005263;28;20036;-80
2022/05/27 08:18:52;;;;;;;2.58;1.30;;;23.10;84.50;;;;;;5010308;28;20051;-81
2022/05/27 08:21:17;;;;;;;2.13;1.30;;;23.30;85.90;;;;;;4985902;28;20332;-80
2022/05/27 08:23:43;;;;;;;2.75;1.40;;;23.60;87.30;;;;;;5000282;28;20080;-81
2022/05/27 08:26:09;;;;;;;2.53;1.40;;;23.90;86.50;;;;;;5002599;28;20041;-81
2022/05/27 08:28:35;;;;;;;1.70;1.10;;;24.20;85.90;;;;;;4972458;28;20029;-81
2022/05/27 08:31:00;;;;;;;1.67;1.10;;;24.50;85.90;;;;;;4999235;28;20029;-81
2022/05/27 08:38:01;;;;;;;2.08;1.40;;;24.90;86.40;;;;;;5025890;28;20064;-81
2022/05/27 08:39:07;;;;;;;3.28;1.13;;;25.70;81.40;;;;;;5024515;28;20044;-75
2022/05/27 08:41:42;;;;;;;1.70;1.20;;;25.90;82.30;;;;;;4978710;28;20398;-76
2022/05/27 08:44:25;;;;;;;1.67;1.17;;;26.10;79.00;;;;;;4999727;28;20135;-75
2022/05/27 08:47:03;;;;;;;1.98;1.10;;;26.40;82.50;;;;;;5019091;28;20119;-76
2022/05/27 08:49:40;;;;;;;1.77;1.00;;;26.70;79.10;;;;;;4990552;28;20258;-76
2022/05/27 08:52:35;;;;;;;2.80;1.20;;;27.10;78.60;;;;;;4998549;28;20632;-76
2022/05/27 08:59:26;;;;;;;1.77;1.20;;;27.40;81.30;;;;;;4985953;28;20030;-76
2022/05/27 09:00:40;;;;;;;1.33;0.93;;;27.80;77.20;;;;;;4979894;28;20078;-76
2022/05/27 09:03:08;;;;;;;2.93;1.20;;;27.80;75.80;;;;;;4990672;28;20089;-76
2022/05/27 09:05:47;;;;;;;2.72;1.10;;;27.70;73.30;;;;;;5002946;28;20077;-76
2022/05/27 09:08:24;;;;;;;1.88;0.90;;;27.60;72.00;;;;;;4984917;28;20311;-76
2022/05/27 09:11:34;;;;;;;2.70;1.02;;;27.40;70.00;;;;;;4971979;28;20555;-76
2022/05/27 09:14:20;;;;;;;1.95;1.00;;;27.30;69.70;;;;;;4956965;28;20038;-75
2022/05/27 09:17:00;;;;;;;2.77;1.00;;;27.40;70.20;;;;;;4970969;28;20033;-76
2022/05/27 09:20:00;;;;;;;1.60;0.90;;;27.40;71.50;;;;;;4986281;28;20199;-76
2022/05/27 09:22:32;;;;;;;1.73;1.10;;;27.40;67.70;;;;;;5001253;28;20814;-75
2022/05/27 09:24:57;;;;;;;1.30;1.00;;;27.40;71.00;;;;;;4991372;28;20031;-75
2022/05/27 09:27:52;;;;;;;1.60;1.10;;;27.50;73.90;;;;;;4974003;28;20537;-76
2022/05/27 09:30:18;;;;;;;1.92;1.10;;;27.60;68.30;;;;;;4996154;28;20891;-76
2022/05/27 09:33:07;;;;;;;2.00;1.17;;;27.70;75.40;;;;;;4992906;28;20072;-76
2022/05/27 09:35:38;;;;;;;2.55;1.08;;;28.10;69.60;;;;;;4980984;28;20037;-76
2022/05/27 09:38:06;;;;;;;2.43;1.27;;;28.40;73.60;;;;;;4987670;28;20043;-75
2022/05/27 09:40:57;;;;;;;2.83;1.10;;;28.70;74.40;;;;;;4993398;28;20038;-76
2022/05/27 09:44:19;;;;;;;2.58;1.20;;;28.90;70.60;;;;;;4987940;28;21057;-76
2022/05/27 09:46:49;;;;;;;1.92;1.27;;;29.40;70.00;;;;;;4913323;28;20126;-80
2022/05/27 09:49:14;;;;;;;2.35;1.02;;;29.60;69.60;;;;;;4939372;28;20335;-81
2022/05/27 09:51:40;;;;;;;2.53;1.20;;;29.60;70.00;;;;;;4943051;28;20375;-81
2022/05/27 09:54:09;;;;;;;2.50;1.47;;;29.40;68.00;;;;;;4992999;28;20033;-81
2022/05/27 09:56:43;;;;;;;1.60;1.20;;;29.20;65.50;;;;;;5007519;28;20057;-82
2022/05/27 09:59:25;;;;;;;2.25;1.20;;;28.90;65.00;;;;;;4991232;28;20030;-82
2022/05/27 10:01:52;;;;;;;2.00;1.02;;;28.80;63.30;;;;;;5003883;28;20060;-81
2022/05/27 10:04:19;;;;;;;3.65;1.20;;;28.70;68.90;;;;;;4986406;28;20033;-81
2022/05/27 10:06:46;;;;;;;2.43;1.30;;;28.80;70.60;;;;;;4988444;28;20041;-82
2022/05/27 10:09:33;;;;;;;2.55;1.20;;;29.10;71.40;;;;;;4989242;28;20120;-81
2022/05/27 10:11:59;;;;;;;2.97;1.00;;;29.40;62.90;;;;;;5013117;28;20060;-81
2022/05/27 10:14:28;;;;;;;2.67;1.02;;;29.60;68.10;;;;;;4989202;28;20564;-81
2022/05/27 10:17:10;;;;;;;2.00;1.30;;;29.70;66.30;;;;;;5000482;28;20314;-81
2022/05/27 10:19:47;;;;;;;3.77;1.47;;;29.70;62.90;;;;;;5004813;28;20100;-81
2022/05/27 10:22:28;;;;;;;2.45;1.20;;;29.70;61.60;;;;;;4985046;28;20167;-82
2022/05/27 10:25:03;;;;;;;2.45;1.05;;;29.70;59.50;;;;;;5003720;28;20154;-81
2022/05/27 10:27:51;;;;;;;2.17;1.23;;;29.90;62.00;;;;;;5007800;28;20065;-81
2022/05/27 10:30:27;;;;;;;2.95;1.30;;;29.90;61.00;;;;;;4972175;28;20069;-82
2022/05/27 10:32:54;;;;;;;2.37;1.13;;;30.00;62.10;;;;;;4993071;28;20485;-82
2022/05/27 10:35:32;;;;;;;2.38;1.10;;;30.00;64.50;;;;;;5002901;28;20077;-82
2022/05/27 10:38:10;;;;;;;2.53;1.10;;;30.00;60.60;;;;;;4991373;28;20741;-81
2022/05/27 10:40:54;;;;;;;2.30;1.15;;;30.10;60.90;;;;;;5012825;28;20205;-82
2022/05/27 10:43:36;;;;;;;2.25;1.20;;;30.20;59.80;;;;;;4998683;28;20205;-81
2022/05/27 10:46:09;;;;;;;3.30;1.13;;;30.00;59.60;;;;;;4988458;28;20060;-82
2022/05/27 10:48:53;;;;;;;3.78;1.42;;;29.80;58.60;;;;;;5000769;28;20030;-82
2022/05/27 10:51:34;;;;;;;1.92;1.00;;;29.70;61.30;;;;;;5017134;28;20059;-82
2022/05/27 10:54:22;;;;;;;1.85;1.20;;;29.70;60.30;;;;;;5016736;28;20029;-81
2022/05/27 11:03:08;;;;;;;2.33;1.20;;;30.10;58.20;;;;;;5014643;28;20437;-82
2022/05/27 11:06:00;;;;;;;2.88;1.20;;;30.20;60.20;;;;;;4984408;28;20026;-81
2022/05/27 11:08:28;;;;;;;2.20;1.00;;;30.40;57.80;;;;;;5003041;28;20041;-81
2022/05/27 11:11:08;;;;;;;2.13;1.40;;;30.60;62.50;;;;;;4994650;28;20047;-81
2022/05/27 11:17:04;;;;;;;2.60;1.15;;;30.90;55.50;;;;;;4998335;28;20175;-82
2022/05/27 11:19:47;;;;;;;2.40;1.50;;;31.00;54.70;;;;;;4995049;28;20037;-80
2022/05/27 11:22:36;;;;;;;2.15;1.20;;;30.90;57.40;;;;;;5004283;28;20029;-81
2022/05/27 11:25:22;;;;;;;2.63;1.15;;;30.80;51.80;;;;;;5018767;28;20057;-81
2022/05/27 11:28:25;;;;;;;2.93;1.20;;;30.60;55.60;;;;;;5029530;28;20102;-81
2022/05/27 11:31:25;;;;;;;2.50;1.30;;;30.50;53.80;;;;;;4989033;28;20036;-82
2022/05/27 11:34:18;;;;;;;2.50;1.20;;;30.60;54.50;;;;;;5000053;28;20232;-81
2022/05/27 11:36:54;;;;;;;2.28;1.20;;;30.50;55.20;;;;;;4982078;28;20148;-82
2022/05/27 11:39:34;;;;;;;2.72;1.40;;;30.50;58.30;;;;;;5004625;28;20443;-82
2022/05/27 11:42:07;;;;;;;3.03;1.40;;;30.40;55.70;;;;;;4980654;28;20353;-83
2022/05/27 11:44:50;;;;;;;3.15;1.40;;;30.40;58.00;;;;;;5009613;28;20124;-81
2022/05/27 11:47:41;;;;;;;3.03;1.42;;;30.30;57.90;;;;;;5000838;28;20180;-81
2022/05/27 11:50:44;;;;;;;2.63;1.60;;;30.40;58.90;;;;;;4988729;28;20396;-82
2022/05/27 11:53:34;;;;;;;3.08;1.60;;;30.50;54.40;;;;;;4972261;28;20419;-81
2022/05/27 11:56:35;;;;;;;2.40;1.67;;;30.70;56.00;;;;;;5006986;28;20046;-81
2022/05/27 11:59:05;;;;;;;2.72;1.60;;;30.70;54.10;;;;;;4979094;28;20037;-82
2022/05/27 12:02:09;;;;;;;3.65;1.25;;;30.80;58.50;;;;;;5012406;28;20132;-82
2022/05/27 12:04:43;;;;;;;3.58;1.35;;;31.00;55.20;;;;;;5000078;28;20053;-81
2022/05/27 12:07:19;;;;;;;2.65;1.58;;;31.30;57.00;;;;;;4981486;28;20852;-81
2022/05/27 12:09:54;;;;;;;2.73;1.57;;;31.50;54.90;;;;;;5005394;28;20044;-82
2022/05/27 12:12:29;;;;;;;3.53;1.23;;;31.70;56.90;;;;;;4995757;28;20040;-82
2022/05/27 12:15:04;;;;;;;4.70;1.60;;;31.80;55.00;;;;;;5004796;28;20025;-81
2022/05/27 12:17:47;;;;;;;2.72;1.50;;;32.00;55.50;;;;;;5028240;28;20044;-81
2022/05/27 12:20:21;;;;;;;2.08;1.20;;;32.10;53.60;;;;;;4980427;28;20248;-82
2022/05/27 12:22:50;;;;;;;2.60;1.30;;;32.30;54.50;;;;;;4976643;28;20040;-81
2022/05/27 12:25:23;;;;;;;3.15;1.40;;;32.40;54.40;;;;;;5007825;28;20178;-81
2022/05/27 12:27:50;;;;;;;3.28;1.48;;;32.20;53.00;;;;;;5012235;28;20454;-82
2022/05/27 12:30:18;;;;;;;4.95;1.42;;;32.10;53.50;;;;;;5013545;28;20167;-81
2022/05/27 12:32:46;;;;;;;2.95;1.55;;;32.00;52.70;;;;;;4988358;28;20029;-81
2022/05/27 12:35:47;;;;;;;2.73;1.20;;;31.90;53.10;;;;;;4991543;28;20720;-82
2022/05/27 12:38:22;;;;;;;3.17;1.50;;;31.90;50.70;;;;;;4951931;28;20434;-82
2022/05/27 12:41:06;;;;;;;4.20;1.50;;;31.80;52.70;;;;;;4995508;28;20088;-80
2022/05/27 12:43:38;;;;;;;2.50;1.40;;;31.70;52.10;;;;;;5002094;28;20037;-82
2022/05/27 12:46:03;;;;;;;2.35;1.20;;;31.70;52.50;;;;;;4996842;28;20171;-83
2022/05/27 12:48:41;;;;;;;3.03;1.23;;;31.60;53.10;;;;;;4992197;28;20038;-81
2022/05/27 12:51:16;;;;;;;3.65;1.45;;;31.60;49.70;;;;;;5001477;28;20533;-82
2022/05/27 12:53:52;;;;;;;2.83;1.35;;;31.70;54.00;;;;;;4996045;28;20128;-82
2022/05/27 13:02:22;;;;;;;3.10;1.60;;;31.90;50.30;;;;;;5001711;28;20034;-82
2022/05/27 13:04:53;;;;;;;3.25;1.23;;;31.80;48.30;;;;;;5008322;28;20797;-81
2022/05/27 13:07:43;;;;;;;2.75;1.30;;;31.70;50.60;;;;;;4965233;28;21082;-82
2022/05/27 13:10:17;;;;;;;2.13;1.38;;;31.70;49.40;;;;;;4976944;28;20149;-83
2022/05/27 13:12:49;;;;;;;2.93;1.47;;;31.60;49.40;;;;;;5001318;28;20561;-82
2022/05/27 13:15:23;;;;;;;3.58;1.30;;;31.60;50.30;;;;;;4990836;28;20049;-81
2022/05/27 13:18:10;;;;;;;3.35;1.38;;;31.60;49.30;;;;;;5005565;28;20754;-81
2022/05/27 13:21:00;;;;;;;4.40;1.30;;;31.50;50.20;;;;;;4996832;28;20303;-82
2022/05/27 13:23:28;;;;;;;4.15;1.50;;;31.30;47.70;;;;;;4995953;28;20069;-81
2022/05/27 13:26:18;;;;;;;3.90;1.50;;;31.10;49.50;;;;;;4966904;28;20034;-81
2022/05/27 13:28:57;;;;;;;3.75;1.40;;;30.90;46.50;;;;;;5012652;28;20493;-82
2022/05/27 13:31:31;;;;;;;3.53;1.40;;;30.80;48.00;;;;;;4997155;28;20085;-82
2022/05/27 13:34:06;;;;;;;3.20;1.40;;;30.60;49.90;;;;;;5004613;28;20061;-81
2022/05/27 13:36:57;;;;;;;5.70;1.30;;;30.50;50.70;;;;;;4980227;28;20712;-83
2022/05/27 13:39:33;;;;;;;4.70;1.30;;;30.50;48.40;;;;;;4985013;28;20240;-81
2022/05/27 13:41:59;;;;;;;5.10;1.30;;;30.40;48.80;;;;;;4967438;28;20033;-83
2022/05/27 13:44:25;;;;;;;4.15;1.33;;;30.30;50.50;;;;;;4987926;28;20045;-82
2022/05/27 13:46:54;;;;;;;3.88;1.40;;;30.30;50.60;;;;;;4997145;28;20505;-81
2022/05/27 13:49:41;;;;;;;3.33;1.30;;;30.30;50.00;;;;;;4996598;28;20520;-83
2022/05/27 13:52:20;;;;;;;2.90;1.30;;;30.30;48.30;;;;;;4970916;28;20038;-82
2022/05/27 13:54:47;;;;;;;3.65;1.40;;;30.30;47.60;;;;;;4990421;28;20055;-82
2022/05/27 13:57:27;;;;;;;2.63;1.27;;;30.30;50.40;;;;;;4962759;28;20041;-81